createdAt,value
2018-07-26T00:00:51.981Z,24.60
2018-07-26T00:03:19.452Z,24.60
2018-07-26T00:05:46.948Z,24.60
2018-07-26T00:08:14.417Z,24.60
2018-07-26T00:10:41.964Z,24.60
2018-07-26T00:13:09.885Z,24.60
2018-07-26T00:15:38.077Z,24.60
2018-07-26T00:18:05.562Z,24.60
2018-07-26T00:20:33.037Z,24.60
2018-07-26T00:23:00.522Z,24.60
2018-07-26T00:25:27.988Z,24.60
2018-07-26T00:27:55.488Z,24.60
2018-07-26T00:30:22.962Z,24.50
2018-07-26T00:32:50.445Z,24.60
2018-07-26T00:35:17.916Z,24.60
2018-07-26T00:37:45.372Z,24.60
2018-07-26T00:40:12.853Z,24.60
2018-07-26T00:42:40.337Z,24.60
2018-07-26T00:45:08.920Z,24.60
2018-07-26T00:47:37.419Z,24.60
2018-07-26T00:50:04.892Z,24.60
2018-07-26T00:52:32.386Z,24.60
2018-07-26T00:54:59.929Z,24.60
2018-07-26T00:57:27.400Z,24.60
2018-07-26T00:59:56.216Z,24.50
2018-07-26T01:02:24.574Z,24.60
2018-07-26T01:04:52.053Z,24.60
2018-07-26T01:07:19.517Z,24.60
2018-07-26T01:09:47.003Z,24.60
2018-07-26T01:12:14.489Z,24.60
2018-07-26T01:14:41.988Z,24.60
2018-07-26T01:17:09.604Z,24.60
2018-07-26T01:19:37.969Z,24.60
2018-07-26T01:22:06.528Z,24.60
2018-07-26T01:24:34.153Z,24.60
2018-07-26T01:27:02.465Z,24.60
2018-07-26T01:29:29.960Z,24.60
2018-07-26T01:31:57.433Z,24.60
2018-07-26T01:34:25.624Z,24.60
2018-07-26T01:36:55.029Z,24.50
2018-07-26T01:39:22.500Z,24.60
2018-07-26T01:41:50.526Z,24.60
2018-07-26T01:44:18.728Z,24.60
2018-07-26T01:46:46.267Z,24.60
2018-07-26T01:49:13.738Z,24.60
2018-07-26T01:51:41.205Z,24.60
2018-07-26T01:54:08.681Z,24.50
2018-07-26T01:56:37.205Z,24.50
2018-07-26T01:59:04.700Z,24.60
2018-07-26T02:01:32.177Z,24.60
2018-07-26T02:03:59.633Z,24.60
2018-07-26T02:06:27.208Z,24.60
2018-07-26T02:08:55.784Z,24.60
2018-07-26T02:11:24.261Z,24.50
2018-07-26T02:13:51.777Z,24.60
2018-07-26T02:18:46.561Z,24.50
2018-07-26T02:21:14.051Z,24.60
2018-07-26T02:23:41.540Z,24.60
2018-07-26T02:26:09.121Z,24.50
2018-07-26T02:28:37.344Z,24.50
2018-07-26T02:31:04.997Z,24.60
2018-07-26T02:33:32.477Z,24.50
2018-07-26T02:35:59.964Z,24.60
2018-07-26T02:38:27.464Z,24.50
2018-07-26T02:40:56.282Z,24.50
2018-07-26T02:43:24.609Z,24.50
2018-07-26T02:45:52.117Z,24.60
2018-07-26T02:48:19.604Z,24.60
2018-07-26T02:50:47.113Z,24.60
2018-07-26T02:53:14.600Z,24.50
2018-07-26T02:55:42.157Z,24.60
2018-07-26T02:58:09.781Z,24.60
2018-07-26T03:00:38.388Z,24.50
2018-07-26T03:03:06.576Z,24.60
2018-07-26T03:05:34.071Z,24.50
2018-07-26T03:08:01.662Z,24.50
2018-07-26T03:10:29.143Z,24.50
2018-07-26T03:12:56.606Z,24.50
2018-07-26T03:15:25.049Z,24.50
2018-07-26T03:17:52.702Z,24.50
2018-07-26T03:20:20.201Z,24.50
2018-07-26T03:22:47.653Z,24.50
2018-07-26T03:25:15.171Z,24.50
2018-07-26T03:27:42.632Z,24.60
2018-07-26T03:30:10.162Z,24.50
2018-07-26T03:32:37.851Z,24.50
2018-07-26T03:35:05.325Z,24.50
2018-07-26T03:37:32.909Z,24.50
2018-07-26T03:40:00.380Z,24.50
2018-07-26T03:42:27.856Z,24.50
2018-07-26T03:44:57.132Z,24.50
2018-07-26T03:47:25.700Z,24.50
2018-07-26T03:49:54.388Z,24.50
2018-07-26T03:52:21.875Z,24.50
2018-07-26T03:54:49.349Z,24.50
2018-07-26T03:57:16.868Z,24.50
2018-07-26T03:59:44.332Z,24.50
2018-07-26T04:02:11.829Z,24.50
2018-07-26T04:04:39.305Z,24.50
2018-07-26T04:07:07.341Z,24.30
2018-07-26T04:09:34.820Z,24.10
2018-07-26T04:12:02.521Z,23.90
2018-07-26T04:14:29.985Z,23.70
2018-07-26T04:16:57.487Z,23.50
2018-07-26T04:19:25.193Z,23.40
2018-07-26T04:21:52.960Z,23.30
2018-07-26T04:24:20.456Z,23.20
2018-07-26T04:26:47.939Z,23.10
2018-07-26T04:29:15.404Z,23.10
2018-07-26T04:31:42.925Z,23.10
2018-07-26T04:36:37.933Z,23.30
2018-07-26T04:39:07.815Z,23.30
2018-07-26T04:41:35.336Z,23.20
2018-07-26T04:44:02.954Z,23.10
2018-07-26T04:46:30.482Z,23.00
2018-07-26T04:48:57.988Z,22.90
2018-07-26T04:51:25.630Z,22.90
2018-07-26T04:53:54.328Z,22.90
2018-07-26T04:56:21.899Z,22.80
2018-07-26T04:58:49.365Z,22.80
2018-07-26T05:01:16.824Z,22.80
2018-07-26T05:03:44.305Z,22.70
2018-07-26T05:06:11.949Z,22.80
2018-07-26T05:08:39.422Z,22.80
2018-07-26T05:11:07.364Z,22.80
2018-07-26T05:13:34.921Z,22.90
2018-07-26T05:16:08.284Z,23.10
2018-07-26T05:18:35.789Z,23.20
2018-07-26T05:21:03.245Z,23.30
2018-07-26T05:23:30.741Z,23.40
2018-07-26T05:25:58.208Z,23.50
2018-07-26T05:28:25.774Z,23.60
2018-07-26T05:30:54.425Z,23.60
2018-07-26T05:33:21.943Z,23.70
2018-07-26T05:35:49.412Z,23.70
2018-07-26T05:38:16.888Z,23.80
2018-07-26T05:40:44.356Z,23.90
2018-07-26T05:43:11.847Z,23.80
2018-07-26T05:45:39.321Z,23.90
2018-07-26T05:48:07.392Z,23.90
2018-07-26T05:50:34.854Z,23.90
2018-07-26T05:53:02.324Z,24.00
2018-07-26T05:55:29.812Z,23.90
2018-07-26T05:57:57.281Z,24.00
2018-07-26T06:00:25.428Z,24.00
2018-07-26T06:02:53.033Z,24.00
2018-07-26T06:05:20.542Z,24.00
2018-07-26T06:07:48.008Z,24.00
2018-07-26T06:10:15.534Z,24.10
2018-07-26T06:12:43.016Z,24.10
2018-07-26T06:15:11.963Z,24.10
2018-07-26T06:17:39.771Z,24.10
2018-07-26T06:20:10.057Z,24.10
2018-07-26T06:22:39.011Z,24.10
2018-07-26T06:25:07.369Z,24.10
2018-07-26T06:27:34.860Z,24.10
2018-07-26T06:30:02.417Z,24.10
2018-07-26T06:32:30.069Z,24.10
2018-07-26T06:34:57.974Z,24.10
2018-07-26T06:37:25.462Z,24.20
2018-07-26T06:39:52.954Z,24.10
2018-07-26T06:42:20.485Z,24.20
2018-07-26T06:44:47.978Z,24.10
2018-07-26T06:47:15.452Z,24.20
2018-07-26T06:49:42.985Z,24.20
2018-07-26T06:52:10.478Z,24.20
2018-07-26T06:54:37.974Z,24.20
2018-07-26T06:57:05.457Z,24.20
2018-07-26T06:59:32.945Z,24.20
2018-07-26T07:02:00.429Z,24.20
2018-07-26T07:04:27.917Z,24.20
2018-07-26T07:06:55.427Z,24.20
2018-07-26T07:09:22.926Z,24.20
2018-07-26T07:11:50.414Z,24.20
2018-07-26T07:14:17.914Z,24.20
2018-07-26T07:16:45.404Z,24.20
2018-07-26T07:19:12.897Z,24.20
2018-07-26T07:21:40.401Z,24.30
2018-07-26T07:24:07.921Z,24.20
2018-07-26T07:29:02.719Z,24.20
2018-07-26T07:31:30.239Z,24.30
2018-07-26T07:33:57.821Z,24.20
2018-07-26T07:36:25.556Z,24.20
2018-07-26T07:38:53.072Z,24.30
2018-07-26T07:41:20.576Z,24.20
2018-07-26T07:43:48.073Z,24.20
2018-07-26T07:46:15.577Z,24.30
2018-07-26T07:48:43.081Z,24.30
2018-07-26T07:51:10.578Z,24.30
2018-07-26T07:53:38.122Z,24.30
2018-07-26T07:56:05.629Z,24.30
2018-07-26T07:58:33.130Z,24.30
2018-07-26T08:01:00.646Z,24.30
2018-07-26T08:03:28.137Z,24.30
2018-07-26T08:05:55.630Z,24.30
2018-07-26T08:08:23.173Z,24.30
2018-07-26T08:10:50.657Z,24.30
2018-07-26T08:13:18.139Z,24.30
2018-07-26T08:15:45.625Z,24.30
2018-07-26T08:20:40.342Z,24.30
2018-07-26T08:23:07.822Z,24.30
2018-07-26T08:25:35.300Z,24.30
2018-07-26T08:28:02.822Z,24.30
2018-07-26T08:30:30.380Z,24.40
2018-07-26T08:32:57.878Z,24.30
2018-07-26T08:35:25.375Z,24.30
2018-07-26T08:37:52.861Z,24.30
2018-07-26T08:40:20.360Z,24.40
2018-07-26T08:42:47.853Z,24.30
2018-07-26T08:45:15.354Z,24.40
2018-07-26T08:47:42.894Z,24.30
2018-07-26T08:50:10.744Z,24.30
2018-07-26T08:52:38.330Z,24.30
2018-07-26T08:55:05.849Z,24.30
2018-07-26T08:57:33.453Z,24.40
2018-07-26T09:00:00.955Z,24.40
2018-07-26T09:02:28.690Z,24.30
2018-07-26T09:04:56.220Z,24.40
2018-07-26T09:07:23.707Z,24.40
2018-07-26T09:09:51.240Z,24.30
2018-07-26T09:12:18.730Z,24.40
2018-07-26T09:14:46.225Z,24.40
2018-07-26T09:17:13.728Z,24.40
2018-07-26T09:19:41.289Z,24.40
2018-07-26T09:22:08.733Z,24.40
2018-07-26T09:24:39.727Z,24.30
2018-07-26T09:27:07.227Z,24.40
2018-07-26T09:29:34.718Z,24.40
2018-07-26T09:32:02.213Z,24.40
2018-07-26T09:34:29.713Z,24.40
2018-07-26T09:36:57.217Z,24.40
2018-07-26T09:39:24.721Z,24.40
2018-07-26T09:41:52.227Z,24.40
2018-07-26T09:44:19.731Z,24.40
2018-07-26T09:46:47.306Z,24.40
2018-07-26T09:49:14.802Z,24.40
2018-07-26T09:51:42.289Z,24.40
2018-07-26T09:54:09.785Z,24.40
2018-07-26T09:56:37.282Z,24.40
2018-07-26T09:59:04.783Z,24.40
2018-07-26T10:01:34.126Z,24.40
2018-07-26T10:04:01.622Z,24.40
2018-07-26T10:06:29.224Z,24.40
2018-07-26T10:08:56.775Z,24.40
2018-07-26T10:11:25.031Z,24.50
2018-07-26T10:13:52.628Z,24.40
2018-07-26T10:16:20.124Z,24.40
2018-07-26T10:18:47.626Z,24.40
2018-07-26T10:21:15.287Z,24.40
2018-07-26T10:23:42.772Z,24.50
2018-07-26T10:26:10.261Z,24.40
2018-07-26T10:28:37.775Z,24.40
2018-07-26T10:31:05.745Z,24.40
2018-07-26T10:33:33.242Z,24.50
2018-07-26T10:36:00.729Z,24.50
2018-07-26T10:38:28.214Z,24.50
2018-07-26T10:40:55.734Z,24.40
2018-07-26T10:43:23.232Z,24.50
2018-07-26T10:45:50.752Z,24.50
2018-07-26T10:48:18.238Z,24.50
2018-07-26T10:50:45.738Z,24.50
2018-07-26T10:53:13.248Z,24.50
2018-07-26T10:55:40.746Z,24.50
2018-07-26T10:58:08.237Z,24.50
2018-07-26T11:00:35.730Z,24.50
2018-07-26T11:03:03.235Z,24.50
2018-07-26T11:05:30.741Z,24.50
2018-07-26T11:07:58.245Z,24.50
2018-07-26T11:10:25.768Z,24.50
2018-07-26T11:12:53.270Z,24.50
2018-07-26T11:15:22.829Z,24.50
2018-07-26T11:19:29.985Z,24.50
2018-07-26T11:21:57.761Z,24.50
2018-07-26T11:24:25.264Z,24.50
2018-07-26T11:26:52.851Z,24.50
2018-07-26T11:29:20.332Z,24.50
2018-07-26T11:31:47.802Z,24.50
2018-07-26T11:34:15.284Z,24.50
2018-07-26T11:36:43.161Z,24.50
2018-07-26T11:39:11.778Z,24.50
2018-07-26T11:41:39.332Z,24.50
2018-07-26T11:44:07.292Z,24.50
2018-07-26T11:46:34.794Z,24.50
2018-07-26T11:49:02.269Z,24.50
2018-07-26T11:51:29.750Z,24.50
2018-07-26T11:53:57.730Z,24.50
2018-07-26T11:56:25.198Z,24.50
2018-07-26T11:58:52.677Z,24.50
2018-07-26T12:03:47.362Z,24.50
2018-07-26T12:06:14.829Z,24.50
2018-07-26T12:08:42.306Z,24.50
2018-07-26T12:11:09.781Z,24.50
2018-07-26T12:13:37.317Z,24.50
2018-07-26T12:16:04.816Z,24.60
2018-07-26T12:18:32.546Z,24.60
2018-07-26T12:21:00.047Z,24.60
2018-07-26T12:23:27.550Z,24.60
2018-07-26T12:25:55.064Z,24.50
2018-07-26T12:28:22.551Z,24.50
2018-07-26T12:30:50.046Z,24.60
2018-07-26T12:33:17.571Z,24.50
2018-07-26T12:35:45.067Z,24.60
2018-07-26T12:38:12.549Z,24.60
2018-07-26T12:40:40.039Z,24.50
2018-07-26T12:43:07.561Z,24.60
2018-07-26T12:45:35.074Z,24.50
2018-07-26T12:48:02.857Z,24.50
2018-07-26T12:50:30.389Z,24.60
2018-07-26T12:52:57.928Z,24.50
2018-07-26T12:55:25.414Z,24.60
2018-07-26T12:57:52.888Z,24.60
2018-07-26T13:00:20.361Z,24.60
2018-07-26T13:02:48.033Z,24.60
2018-07-26T13:05:15.518Z,24.60
2018-07-26T13:07:43.007Z,24.60
2018-07-26T13:10:10.497Z,24.60
2018-07-26T13:12:37.985Z,24.60
2018-07-26T13:15:05.743Z,24.60
2018-07-26T13:17:33.245Z,24.60
2018-07-26T13:20:00.725Z,24.60
2018-07-26T13:22:28.203Z,24.60
2018-07-26T13:24:55.693Z,24.60
2018-07-26T13:27:23.186Z,24.60
2018-07-26T13:29:50.666Z,24.60
2018-07-26T13:32:18.155Z,24.60
2018-07-26T13:34:45.634Z,24.60
2018-07-26T13:37:13.137Z,24.60
2018-07-26T13:39:40.630Z,24.60
2018-07-26T13:42:08.459Z,24.60
2018-07-26T13:44:35.938Z,24.60
2018-07-26T13:47:03.415Z,24.60
2018-07-26T13:49:31.228Z,24.60
2018-07-26T13:51:59.148Z,24.60
2018-07-26T13:54:26.638Z,24.60
2018-07-26T13:56:54.148Z,24.60
2018-07-26T13:59:21.645Z,24.60
2018-07-26T14:01:49.121Z,24.60
2018-07-26T14:04:16.623Z,24.60
2018-07-26T14:06:44.114Z,24.60
2018-07-26T14:09:12.228Z,24.60
2018-07-26T14:11:40.583Z,24.60
2018-07-26T14:14:08.115Z,24.60
2018-07-26T14:16:35.650Z,24.60
2018-07-26T14:19:03.818Z,24.60
2018-07-26T14:21:31.629Z,24.60
2018-07-26T14:24:03.213Z,24.60
2018-07-26T14:26:30.980Z,24.60
2018-07-26T14:28:58.534Z,24.60
2018-07-26T14:31:26.035Z,24.60
2018-07-26T14:33:53.539Z,24.60
2018-07-26T14:36:21.089Z,24.60
2018-07-26T14:38:48.565Z,24.60
2018-07-26T14:41:16.159Z,24.60
2018-07-26T14:43:43.651Z,24.60
2018-07-26T14:46:11.279Z,24.60
2018-07-26T14:48:39.080Z,24.60
2018-07-26T14:51:06.885Z,24.70
2018-07-26T14:53:34.694Z,24.60
2018-07-26T14:56:02.489Z,24.60
2018-07-26T14:58:30.327Z,24.60
2018-07-26T15:00:58.180Z,24.70
2018-07-26T15:03:25.955Z,24.70
2018-07-26T15:05:53.728Z,24.60
2018-07-26T15:08:21.513Z,24.60
2018-07-26T15:10:49.299Z,24.60
2018-07-26T15:13:17.081Z,24.60
2018-07-26T15:15:44.865Z,24.60
2018-07-26T15:18:12.618Z,24.70
2018-07-26T15:20:40.530Z,24.70
2018-07-26T15:23:08.003Z,24.70
2018-07-26T15:25:35.617Z,24.70
2018-07-26T15:28:03.234Z,24.70
2018-07-26T15:30:31.022Z,24.70
2018-07-26T15:32:58.958Z,24.70
2018-07-26T15:35:26.713Z,24.70
2018-07-26T15:37:54.484Z,24.70
2018-07-26T15:40:22.363Z,24.70
2018-07-26T15:42:50.150Z,24.70
2018-07-26T15:47:45.401Z,24.70
2018-07-26T15:50:13.310Z,24.70
2018-07-26T15:52:41.390Z,24.70
2018-07-26T15:55:09.271Z,24.70
2018-07-26T15:57:37.080Z,24.70
2018-07-26T16:00:06.354Z,24.70
2018-07-26T16:02:34.147Z,24.70
2018-07-26T16:05:01.996Z,24.70
2018-07-26T16:07:29.528Z,24.70
2018-07-26T16:09:57.042Z,24.70
2018-07-26T16:12:25.378Z,24.70
2018-07-26T16:14:53.384Z,24.70
2018-07-26T16:17:20.926Z,24.70
2018-07-26T16:19:48.421Z,24.70
2018-07-26T16:22:15.914Z,24.70
2018-07-26T16:24:43.531Z,24.80
2018-07-26T16:27:11.802Z,24.70
2018-07-26T16:29:39.702Z,24.70
2018-07-26T16:34:34.975Z,24.70
2018-07-26T16:38:39.970Z,24.70
2018-07-26T16:41:08.796Z,24.80
2018-07-26T16:43:38.069Z,24.70
2018-07-26T16:46:06.047Z,24.70
2018-07-26T16:48:34.011Z,24.70
2018-07-26T16:51:02.018Z,24.70
2018-07-26T16:53:30.181Z,24.70
2018-07-26T16:55:58.345Z,24.80
2018-07-26T17:00:54.905Z,24.80
2018-07-26T17:03:23.596Z,24.80
2018-07-26T17:08:19.066Z,24.80
2018-07-26T17:10:47.100Z,24.80
2018-07-26T17:13:14.832Z,24.80
2018-07-26T17:15:42.308Z,24.80
2018-07-26T17:19:26.869Z,24.80
2018-07-26T17:21:55.620Z,24.80
2018-07-26T17:24:24.166Z,24.80
2018-07-26T17:26:52.450Z,24.80
2018-07-26T17:29:19.975Z,24.80
2018-07-26T17:31:47.542Z,24.80
2018-07-26T17:34:15.173Z,24.80
2018-07-26T17:36:42.942Z,24.80
2018-07-26T17:39:11.767Z,24.80
2018-07-26T17:41:39.379Z,24.80
2018-07-26T17:44:08.034Z,24.80
2018-07-26T17:46:36.104Z,24.80
2018-07-26T17:49:04.099Z,24.80
2018-07-26T17:51:32.489Z,24.80
2018-07-26T17:54:01.994Z,24.80
2018-07-26T17:56:30.005Z,24.80
2018-07-26T17:58:57.952Z,24.80
2018-07-26T18:01:26.343Z,24.80
2018-07-26T18:03:55.472Z,24.80
2018-07-26T18:06:23.704Z,24.80
2018-07-26T18:08:51.237Z,24.80
2018-07-26T18:11:18.737Z,24.80
2018-07-26T18:13:46.229Z,24.80
2018-07-26T18:16:13.701Z,24.80
2018-07-26T18:18:41.177Z,24.80
2018-07-26T18:21:08.697Z,24.90
2018-07-26T18:23:37.025Z,24.80
2018-07-26T18:26:05.010Z,24.80
2018-07-26T18:28:33.532Z,24.90
2018-07-26T18:31:02.018Z,24.80
2018-07-26T18:33:30.602Z,24.80
2018-07-26T18:35:59.167Z,24.80
2018-07-26T18:38:27.702Z,24.60
2018-07-26T18:40:55.976Z,24.90
2018-07-26T18:43:28.629Z,24.80
2018-07-26T18:45:57.447Z,24.90
2018-07-26T18:48:28.872Z,24.80
2018-07-26T18:50:57.679Z,24.80
2018-07-26T18:53:26.348Z,24.80
2018-07-26T18:55:57.498Z,24.80
2018-07-26T18:58:26.609Z,24.80
2018-07-26T19:03:24.563Z,24.90
2018-07-26T19:05:54.815Z,24.90
2018-07-26T19:08:23.535Z,24.80
2018-07-26T19:10:51.931Z,24.80
2018-07-26T19:13:20.746Z,24.90
2018-07-26T19:18:33.443Z,24.90
2018-07-26T19:21:01.927Z,24.90
2018-07-26T19:23:30.224Z,24.90
2018-07-26T19:25:59.088Z,24.90
2018-07-26T19:28:27.423Z,24.90
2018-07-26T19:30:56.613Z,24.90
2018-07-26T19:33:26.322Z,24.90
2018-07-26T19:35:56.741Z,25.00
2018-07-26T19:38:26.021Z,25.00
2018-07-26T19:40:55.500Z,25.00
2018-07-26T19:43:25.623Z,25.00
2018-07-26T19:45:55.358Z,25.00
2018-07-26T19:48:24.802Z,25.00
2018-07-26T19:50:54.496Z,25.00
2018-07-26T19:53:23.719Z,25.00
2018-07-26T19:55:51.796Z,25.00
2018-07-26T19:58:20.094Z,25.00
2018-07-26T20:00:48.455Z,25.10
2018-07-26T20:03:17.184Z,25.00
2018-07-26T20:05:45.332Z,25.00
2018-07-26T20:08:13.760Z,25.00
2018-07-26T20:10:42.412Z,25.00
2018-07-26T20:13:10.529Z,25.00
2018-07-26T20:15:40.024Z,24.90
2018-07-26T20:18:09.283Z,25.00
2018-07-26T20:20:38.601Z,24.90
2018-07-26T20:23:08.033Z,25.00
2018-07-26T20:25:39.996Z,24.90
2018-07-26T20:28:08.895Z,24.90
2018-07-26T20:30:38.442Z,24.90
2018-07-26T20:33:05.929Z,25.00
2018-07-26T20:35:33.418Z,24.90
2018-07-26T20:40:28.153Z,25.00
2018-07-26T20:42:55.628Z,25.00
2018-07-26T20:45:23.848Z,25.00
2018-07-26T20:47:51.327Z,25.00
2018-07-26T20:50:18.807Z,25.00
2018-07-26T20:52:46.276Z,25.00
2018-07-26T20:55:13.749Z,24.90
2018-07-26T20:57:41.230Z,24.90
2018-07-26T21:00:09.574Z,25.00
2018-07-26T21:02:37.782Z,25.00
2018-07-26T21:05:05.272Z,24.90
2018-07-26T21:07:32.732Z,25.00
2018-07-26T21:10:00.216Z,24.90
2018-07-26T21:12:27.689Z,25.00
2018-07-26T21:14:55.145Z,24.90
2018-07-26T21:17:23.727Z,25.00
2018-07-26T21:19:51.205Z,24.90
2018-07-26T21:22:18.713Z,25.00
2018-07-26T21:27:13.445Z,25.00
2018-07-26T21:29:40.901Z,25.00
2018-07-26T21:32:08.425Z,25.00
2018-07-26T21:34:35.893Z,25.00
2018-07-26T21:37:03.518Z,25.00
2018-07-26T21:39:30.990Z,25.00
2018-07-26T21:41:58.448Z,25.00
2018-07-26T21:44:25.909Z,25.00
2018-07-26T21:46:53.725Z,25.00
2018-07-26T21:49:21.281Z,25.00
2018-07-26T21:51:48.685Z,25.00
2018-07-26T21:54:16.152Z,25.00
2018-07-26T21:56:43.616Z,25.00
2018-07-26T21:59:11.065Z,25.00
2018-07-26T22:01:39.188Z,25.00
2018-07-26T22:04:07.166Z,25.00
2018-07-26T22:06:34.626Z,25.00
2018-07-26T22:09:02.237Z,25.00
2018-07-26T22:11:29.684Z,25.00
2018-07-26T22:13:57.160Z,25.00
2018-07-26T22:16:25.615Z,25.00
2018-07-26T22:18:54.165Z,25.00
2018-07-26T22:21:21.617Z,25.00
2018-07-26T22:23:49.075Z,25.00
2018-07-26T22:26:16.566Z,25.00
2018-07-26T22:28:44.033Z,25.00
2018-07-26T22:31:11.478Z,25.00
2018-07-26T22:33:38.933Z,25.00
2018-07-26T22:36:06.394Z,25.00
2018-07-26T22:38:33.848Z,25.00
2018-07-26T22:41:01.313Z,25.00
2018-07-26T22:43:28.768Z,25.00
2018-07-26T22:45:56.231Z,25.00
2018-07-26T22:48:24.563Z,25.00
2018-07-26T22:50:52.021Z,25.00
2018-07-26T22:53:19.480Z,25.00
2018-07-26T22:55:47.353Z,25.00
2018-07-26T22:58:14.873Z,25.00
2018-07-26T23:00:42.368Z,25.00
2018-07-26T23:03:09.824Z,25.00
2018-07-26T23:05:38.026Z,25.00
2018-07-26T23:08:05.709Z,25.00
2018-07-26T23:10:33.168Z,25.00
2018-07-26T23:13:00.679Z,25.00
2018-07-26T23:15:28.166Z,25.00
2018-07-26T23:17:55.636Z,25.00
2018-07-26T23:20:23.125Z,25.00
2018-07-26T23:22:52.054Z,25.00
2018-07-26T23:25:19.832Z,25.00
2018-07-26T23:27:47.343Z,25.00
2018-07-26T23:30:14.823Z,25.00
2018-07-26T23:32:42.349Z,25.00
2018-07-26T23:35:09.992Z,25.00
2018-07-26T23:37:38.867Z,25.00
2018-07-26T23:40:08.152Z,25.00
2018-07-26T23:42:35.628Z,25.00
2018-07-26T23:45:03.574Z,25.00
2018-07-26T23:47:31.053Z,25.00
2018-07-26T23:49:58.544Z,25.00
2018-07-26T23:52:26.017Z,25.00
2018-07-26T23:54:54.477Z,24.90
2018-07-26T23:57:21.956Z,25.00
2018-07-26T23:59:49.646Z,25.00
